メルボルン の空港の天気 - METARとTAF

メルボルン空港 ( YMML / MEL ) - オーストラリア ビクトリア州、Melbourne Airport
飛行場実況気象(Metar)
観測時間08/14 15:00 AEST (08/14 05:00 UTC)
風向・風速北 5m/s
視程10km以上
天気現象
少しの雲 雲底高度 850m
全天の8割程度の雲 雲底高度 1190m
全天の8割程度の雲 雲底高度 2260m
気温16℃
湿度63%
気圧1011hPa
METARYMML 140500Z 01010KT 9999 FEW028 BKN039 BKN074 16/09 Q1011 INTER 0500/0800 4000 SHRA SCT010 BKN025
過去の天気等 Google飛行場航空写真 Wunderground天気予報

過去48時間のMETAR

飛行場予報(TAF)
発表時間: 8/14 15:00 AEST (8/14 05:00 UTC)
予報対象時間: 14日16時 AEST ~ 15日22時 AEST
風向・風速北 7m/s
視程10km以上
天気現象弱いしゅう雨
少しの雲 雲底高度 610m
全天の4割程度の雲 雲底高度 1520m
14日22時 AEST から
風向・風速北 4m/s
視程10km以上
天気現象弱いしゅう雨
全天の4割程度の雲 雲底高度 1220m
15日5時 AEST から
風向・風速南西 4m/s
視程10km以上
天気現象弱いしゅう雨
全天の4割程度の雲 雲底高度 300m
全天の8割程度の雲 雲底高度 610m
15日13時 AEST から
風向・風速南 5m/s
視程10km以上
天気現象弱いしゅう雨
全天の4割程度の雲 雲底高度 460m
全天の8割程度の雲 雲底高度 760m
15日6時 AEST ~ 15日12時 AEST に一時的に
視程3000m
天気現象霧雨
全天の8割程度の雲 雲底高度 210m
TAF AMD YMML 140500Z 1406/1512 36014KT 9999 -SHRA FEW020 SCT050
FM141200 01008KT 9999 -SHRA SCT040
FM141900 23008KT 9999 -SHRA SCT010 BKN020
FM150300 19009KT 9999 -SHRA SCT015 BKN025 INTER 1406/1413 4000 SHRA SCT010 BKN025
TEMPO 1420/1502 3000 DZ BKN007 INTER 1502/1512 4000 SHRA BKN012 BKN025
PROB30 INTER 1406/1410 VRB20G30KT 4000 TSRA BKN020 FEW030CB